Time;durP1;ratioP1;P1;durP2;ratioP2;P2;SDS_P1;SDS_P2;PMS_P1;PMS_P2;Temp;Humidity;BMP_temperature;BMP_pressure;BME280_temperature;BME280_humidity;BME280_pressure;Samples;Min_cycle;Max_cycle;Signal;HPM_P1;HPM_P2
2021/12/17 00:05:06;;;;;;;13.65;6.63;;;;;;;;;;5093251;28;20038;-60
2021/12/17 00:07:35;;;;;;;11.32;7.03;;;;;;;;;;5093475;28;20040;-60
2021/12/17 00:10:03;;;;;;;15.07;6.80;;;;;;;;;;5092761;28;20028;-60
2021/12/17 00:12:29;;;;;;;12.73;7.18;;;;;;;;;;5093053;28;20039;-60
2021/12/17 00:14:54;;;;;;;12.73;7.47;;;;;;;;;;5093336;28;20028;-60
2021/12/17 00:17:25;;;;;;;13.75;7.18;;;;;;;;;;5091013;28;20480;-60
2021/12/17 00:20:18;;;;;;;;;;;;;;;;;;5091351;28;20096;-59
2021/12/17 00:50:14;;;;;;;9.93;6.20;;;;;;;;;;5093054;28;20039;-59
2021/12/17 00:52:40;;;;;;;14.02;6.95;;;;;;;;;;5093406;28;20047;-59
2021/12/17 00:55:07;;;;;;;12.68;6.45;;;;;;;;;;5092657;28;20051;-59
2021/12/17 00:57:40;;;;;;;15.40;7.53;;;;;;;;;;5092620;28;20562;-60
2021/12/17 01:00:24;;;;;;;13.40;7.95;;;;;;;;;;5092575;28;20029;-59
2021/12/17 01:02:49;;;;;;;11.52;6.68;;;;;;;;;;5092538;28;20097;-59
2021/12/17 01:05:17;;;;;;;12.90;7.25;;;;;;;;;;5092693;28;20032;-59
2021/12/17 01:07:44;;;;;;;11.00;6.10;;;;;;;;;;5093170;28;20381;-61
2021/12/17 01:10:14;;;;;;;12.35;6.65;;;;;;;;;;5092632;28;20400;-61
2021/12/17 01:12:39;;;;;;;10.63;6.53;;;;;;;;;;5092400;28;20043;-61
2021/12/17 01:15:06;;;;;;;13.30;7.03;;;;;;;;;;5092714;28;20032;-60
2021/12/17 01:17:34;;;;;;;14.50;7.65;;;;;;;;;;5092994;28;20039;-60
2021/12/17 01:25:22;;;;;;;10.93;6.10;;;;;;;;;;5092851;28;20036;-60
2021/12/17 01:35:59;;;;;;;12.32;6.65;;;;;;;;;;5092439;28;20040;-60
2021/12/17 01:43:48;;;;;;;12.77;6.38;;;;;;;;;;5076699;28;20047;-60
2021/12/17 01:46:16;;;;;;;12.10;7.00;;;;;;;;;;5090520;28;20059;-61
2021/12/17 01:48:57;;;;;;;9.88;5.85;;;;;;;;;;5090013;28;20066;-60
2021/12/17 01:59:20;;;;;;;11.65;7.35;;;;;;;;;;5069788;28;20046;-60
2021/12/17 01:59:39;;;;;;;9.30;5.07;;;;;;;;;;5069036;28;20128;-60
2021/12/17 02:02:05;;;;;;;10.85;6.03;;;;;;;;;;5073241;28;20075;-60
2021/12/17 02:04:32;;;;;;;12.23;6.82;;;;;;;;;;5073805;28;20117;-61
2021/12/17 02:06:58;;;;;;;10.80;6.30;;;;;;;;;;5073175;28;20059;-61
2021/12/17 02:28:58;;;;;;;11.32;5.72;;;;;;;;;;4993878;28;20041;-61
2021/12/17 02:31:27;;;;;;;13.45;5.90;;;;;;;;;;4993818;28;20054;-61
2021/12/17 02:33:54;;;;;;;9.80;5.88;;;;;;;;;;4993579;28;20030;-61
2021/12/17 02:36:23;;;;;;;10.55;5.68;;;;;;;;;;4993475;28;20041;-61
2021/12/17 02:38:49;;;;;;;11.23;5.80;;;;;;;;;;4993461;28;20165;-61
2021/12/17 02:46:42;;;;;;;11.05;5.57;;;;;;;;;;4993742;28;20097;-61
2021/12/17 02:49:07;;;;;;;9.75;4.85;;;;;;;;;;4993295;28;20463;-61
2021/12/17 02:51:33;;;;;;;12.85;5.78;;;;;;;;;;5012867;28;20026;-61
2021/12/17 02:53:59;;;;;;;8.55;5.00;;;;;;;;;;5072882;28;20036;-61
2021/12/17 02:56:24;;;;;;;9.45;5.53;;;;;;;;;;5094644;28;20024;-60
2021/12/17 02:58:49;;;;;;;9.15;5.38;;;;;;;;;;5095096;28;20041;-60
2021/12/17 03:01:15;;;;;;;9.95;5.30;;;;;;;;;;5095363;28;20008;-60
2021/12/17 03:03:41;;;;;;;11.57;5.55;;;;;;;;;;5094323;28;20047;-61
2021/12/17 03:06:06;;;;;;;11.88;5.68;;;;;;;;;;5094299;28;20040;-60
2021/12/17 03:08:31;;;;;;;9.18;4.93;;;;;;;;;;5094696;28;20028;-56
2021/12/17 03:10:58;;;;;;;11.25;5.25;;;;;;;;;;5093749;28;20522;-56
2021/12/17 03:13:24;;;;;;;12.80;6.07;;;;;;;;;;5088348;28;20040;-56
2021/12/17 03:15:55;;;;;;;9.30;5.30;;;;;;;;;;5074226;28;20094;-56
2021/12/17 03:23:49;;;;;;;12.38;5.63;;;;;;;;;;5073786;28;20561;-55
2021/12/17 03:26:25;;;;;;;9.60;5.20;;;;;;;;;;5073746;28;20127;-56
2021/12/17 03:28:52;;;;;;;8.82;4.95;;;;;;;;;;5066998;28;20165;-55
2021/12/17 03:31:18;;;;;;;8.55;5.20;;;;;;;;;;5073960;28;20039;-56
2021/12/17 03:33:44;;;;;;;9.60;4.72;;;;;;;;;;5088962;28;20040;-56
2021/12/17 03:36:11;;;;;;;10.48;5.25;;;;;;;;;;5073846;28;20362;-56
2021/12/17 03:38:37;;;;;;;11.07;5.57;;;;;;;;;;5073886;28;20029;-56
2021/12/17 03:41:20;;;;;;;10.02;5.30;;;;;;;;;;5073644;28;20411;-56
2021/12/17 03:43:47;;;;;;;9.90;5.15;;;;;;;;;;5087642;28;20024;-55
2021/12/17 03:46:12;;;;;;;10.23;5.20;;;;;;;;;;5107479;28;20077;-55
2021/12/17 03:48:39;;;;;;;9.50;5.50;;;;;;;;;;5093622;28;20028;-55
2021/12/17 03:51:10;;;;;;;11.00;5.80;;;;;;;;;;5093615;28;20032;-55
2021/12/17 03:53:35;;;;;;;8.45;4.97;;;;;;;;;;5093328;28;20020;-55
2021/12/17 03:56:01;;;;;;;9.52;5.85;;;;;;;;;;5093410;28;20077;-55
2021/12/17 03:58:26;;;;;;;9.68;5.40;;;;;;;;;;5093896;28;20166;-55
2021/12/17 04:00:51;;;;;;;12.73;6.00;;;;;;;;;;5093191;28;20110;-56
2021/12/17 04:03:16;;;;;;;8.50;4.85;;;;;;;;;;5093181;28;20489;-57
2021/12/17 04:05:42;;;;;;;9.27;5.45;;;;;;;;;;5092926;28;20507;-56
2021/12/17 04:08:07;;;;;;;10.30;5.65;;;;;;;;;;5092795;28;20040;-57
2021/12/17 04:10:40;;;;;;;12.30;5.97;;;;;;;;;;5092897;28;20059;-55
2021/12/17 04:13:24;;;;;;;10.70;5.70;;;;;;;;;;5092437;28;20105;-55
2021/12/17 04:15:56;;;;;;;9.15;5.55;;;;;;;;;;5092593;28;20040;-55
2021/12/17 04:18:21;;;;;;;10.30;5.47;;;;;;;;;;5092794;28;20032;-56
2021/12/17 04:20:46;;;;;;;8.85;4.95;;;;;;;;;;5092625;28;20488;-56
2021/12/17 04:23:12;;;;;;;9.18;4.75;;;;;;;;;;5091924;28;20024;-56
2021/12/17 04:25:37;;;;;;;8.90;4.97;;;;;;;;;;5092817;28;20544;-56
2021/12/17 04:28:02;;;;;;;9.43;5.07;;;;;;;;;;5091999;28;20515;-56
2021/12/17 04:30:28;;;;;;;8.30;4.70;;;;;;;;;;5092554;28;20032;-56
2021/12/17 04:32:54;;;;;;;7.28;4.53;;;;;;;;;;5086718;28;20462;-56
2021/12/17 04:35:19;;;;;;;8.00;4.93;;;;;;;;;;5072609;28;20074;-56
2021/12/17 04:37:45;;;;;;;8.95;4.40;;;;;;;;;;5072618;28;20028;-56
2021/12/17 04:40:10;;;;;;;8.88;4.25;;;;;;;;;;5072879;28;20020;-56
2021/12/17 04:45:07;;;;;;;10.23;4.97;;;;;;;;;;5092453;28;20089;-56
2021/12/17 04:58:29;;;;;;;8.50;4.78;;;;;;;;;;5092928;28;20075;-55
2021/12/17 05:00:55;;;;;;;7.68;4.88;;;;;;;;;;5071345;28;20063;-56
2021/12/17 05:03:21;;;;;;;8.70;4.55;;;;;;;;;;5090767;28;20044;-55
2021/12/17 05:05:46;;;;;;;8.95;4.90;;;;;;;;;;5088407;28;20112;-56
2021/12/17 05:08:15;;;;;;;7.07;4.40;;;;;;;;;;5091914;28;20143;-57
2021/12/17 05:11:18;;;;;;;8.40;4.55;;;;;;;;;;5092498;28;20032;-56
2021/12/17 05:21:46;;;;;;;8.10;4.57;;;;;;;;;;5092021;28;20400;-56
2021/12/17 05:24:11;;;;;;;11.18;4.78;;;;;;;;;;5091959;28;20040;-56
2021/12/17 05:26:36;;;;;;;7.65;4.55;;;;;;;;;;5092007;28;20074;-56
2021/12/17 05:29:02;;;;;;;7.50;4.78;;;;;;;;;;5092131;28;20032;-56
2021/12/17 05:31:27;;;;;;;8.75;4.32;;;;;;;;;;5092695;28;20032;-56
2021/12/17 05:33:53;;;;;;;5.70;3.92;;;;;;;;;;5090614;28;20047;-56
2021/12/17 05:36:20;;;;;;;6.45;4.63;;;;;;;;;;5075237;28;20063;-57
2021/12/17 05:38:46;;;;;;;5.88;3.70;;;;;;;;;;5083213;28;20024;-56
2021/12/17 05:41:11;;;;;;;8.15;3.83;;;;;;;;;;5096093;28;20108;-56
2021/12/17 05:43:37;;;;;;;7.25;3.97;;;;;;;;;;5096017;28;20456;-56
2021/12/17 05:48:32;;;;;;;7.30;3.88;;;;;;;;;;5096228;28;20039;-56
2021/12/17 05:50:59;;;;;;;6.18;3.47;;;;;;;;;;5096083;28;20115;-56
2021/12/17 05:53:25;;;;;;;6.13;3.80;;;;;;;;;;5096226;28;20030;-55
2021/12/17 05:55:50;;;;;;;5.82;3.75;;;;;;;;;;5094611;28;20016;-55
2021/12/17 05:58:15;;;;;;;6.93;4.38;;;;;;;;;;5096235;28;20096;-56
2021/12/17 06:00:42;;;;;;;5.93;3.47;;;;;;;;;;5095793;28;20043;-55
2021/12/17 06:03:07;;;;;;;8.10;3.53;;;;;;;;;;5102353;28;20035;-56
2021/12/17 06:05:32;;;;;;;5.50;3.42;;;;;;;;;;5098646;28;20024;-57
2021/12/17 06:07:59;;;;;;;4.72;2.80;;;;;;;;;;5094116;28;20059;-57
2021/12/17 06:10:24;;;;;;;5.50;3.33;;;;;;;;;;5094888;28;20485;-57
2021/12/17 06:12:49;;;;;;;4.97;2.92;;;;;;;;;;5093876;28;20162;-56
2021/12/17 06:15:15;;;;;;;3.97;2.45;;;;;;;;;;5093329;28;20476;-56
2021/12/17 06:17:41;;;;;;;3.67;2.47;;;;;;;;;;5093662;28;20111;-56
2021/12/17 06:20:08;;;;;;;5.70;2.22;;;;;;;;;;5094153;28;20150;-57
2021/12/17 06:22:33;;;;;;;6.32;2.40;;;;;;;;;;5093653;28;20020;-58
2021/12/17 06:24:58;;;;;;;7.85;2.55;;;;;;;;;;5094438;28;20043;-57
2021/12/17 06:27:24;;;;;;;8.35;3.85;;;;;;;;;;5091501;28;20028;-58
2021/12/17 06:29:49;;;;;;;6.22;2.15;;;;;;;;;;5092810;28;20062;-58
2021/12/17 06:32:14;;;;;;;4.00;1.98;;;;;;;;;;5093961;28;20024;-57
2021/12/17 06:34:40;;;;;;;5.50;3.03;;;;;;;;;;5093643;28;20020;-58
2021/12/17 06:37:05;;;;;;;2.67;1.77;;;;;;;;;;5107601;28;20421;-57
2021/12/17 06:39:31;;;;;;;8.18;1.85;;;;;;;;;;5105956;28;20396;-57
2021/12/17 06:41:56;;;;;;;6.53;1.80;;;;;;;;;;5112058;28;20027;-58
2021/12/17 06:44:26;;;;;;;4.13;1.88;;;;;;;;;;5115003;28;20392;-58
2021/12/17 06:46:58;;;;;;;4.80;1.90;;;;;;;;;;5115001;28;20099;-57
2021/12/17 06:55:03;;;;;;;2.60;1.48;;;;;;;;;;5100798;28;20074;-58
2021/12/17 07:10:50;;;;;;;1.95;1.30;;;;;;;;;;5102445;28;20036;-59
2021/12/17 07:21:28;;;;;;;4.72;2.13;;;;;;;;;;5114699;28;20426;-58
2021/12/17 07:34:13;;;;;;;5.88;1.95;;;;;;;;;;5092427;28;20171;-57
2021/12/17 07:38:35;;;;;;;5.50;1.83;;;;;;;;;;5097192;28;20076;-57
2021/12/17 07:39:29;;;;;;;6.85;2.17;;;;;;;;;;5096099;28;20032;-57
2021/12/17 07:41:54;;;;;;;4.03;1.83;;;;;;;;;;5101227;28;20496;-57
2021/12/17 07:44:20;;;;;;;7.72;2.28;;;;;;;;;;5095807;28;20027;-57
2021/12/17 07:46:45;;;;;;;6.32;2.30;;;;;;;;;;5090317;28;20036;-57
2021/12/17 07:49:10;;;;;;;6.57;2.05;;;;;;;;;;5097602;28;20073;-58
2021/12/17 07:51:36;;;;;;;6.80;2.25;;;;;;;;;;5094737;28;20035;-57
2021/12/17 07:54:03;;;;;;;5.75;2.95;;;;;;;;;;5092289;28;20057;-58
2021/12/17 07:56:30;;;;;;;9.05;3.80;;;;;;;;;;5091221;28;20032;-58
2021/12/17 07:58:55;;;;;;;19.20;7.38;;;;;;;;;;5091028;28;20074;-58
2021/12/17 08:01:21;;;;;;;27.40;9.15;;;;;;;;;;5092613;28;20040;-58
2021/12/17 08:03:46;;;;;;;17.33;5.68;;;;;;;;;;5091123;28;20048;-58
2021/12/17 08:06:12;;;;;;;17.70;4.82;;;;;;;;;;5090524;28;20036;-58
2021/12/17 08:08:37;;;;;;;9.82;4.22;;;;;;;;;;5100713;28;20153;-58
2021/12/17 08:11:03;;;;;;;15.27;5.55;;;;;;;;;;5111329;28;20028;-58
2021/12/17 08:13:32;;;;;;;14.00;5.82;;;;;;;;;;5111742;28;20019;-57
2021/12/17 08:31:28;;;;;;;24.38;10.02;;;;;;;;;;5087890;28;20043;-58
2021/12/17 08:33:53;;;;;;;30.05;13.15;;;;;;;;;;5085899;28;20384;-59
2021/12/17 08:36:19;;;;;;;35.42;13.77;;;;;;;;;;5090037;28;20032;-59
2021/12/17 08:38:45;;;;;;;36.80;17.35;;;;;;;;;;5090874;28;20040;-57
2021/12/17 08:41:11;;;;;;;45.10;19.05;;;;;;;;;;5090978;28;20036;-58
2021/12/17 08:43:36;;;;;;;46.80;22.67;;;;;;;;;;5090492;28;20028;-57
2021/12/17 08:46:03;;;;;;;35.65;18.10;;;;;;;;;;5090110;28;20078;-57
2021/12/17 08:48:28;;;;;;;29.48;13.85;;;;;;;;;;5108562;28;20141;-57
2021/12/17 08:50:54;;;;;;;30.05;14.68;;;;;;;;;;5108116;28;20160;-57
2021/12/17 08:53:19;;;;;;;30.20;14.55;;;;;;;;;;5091364;28;20024;-58
2021/12/17 08:55:45;;;;;;;34.53;14.88;;;;;;;;;;5093017;28;20099;-57
2021/12/17 08:58:13;;;;;;;27.70;15.05;;;;;;;;;;5097939;28;20020;-57
2021/12/17 09:00:39;;;;;;;28.88;15.20;;;;;;;;;;5095557;28;20024;-58
2021/12/17 09:03:04;;;;;;;38.05;16.77;;;;;;;;;;5097114;28;20548;-58
2021/12/17 09:05:29;;;;;;;37.97;18.00;;;;;;;;;;5097961;28;20028;-58
2021/12/17 09:07:55;;;;;;;36.40;18.85;;;;;;;;;;5096165;28;20044;-58
2021/12/17 09:10:22;;;;;;;36.03;19.92;;;;;;;;;;5095740;28;20016;-58
2021/12/17 09:12:48;;;;;;;43.90;20.83;;;;;;;;;;5090570;28;20040;-58
2021/12/17 09:15:13;;;;;;;53.55;29.05;;;;;;;;;;5093841;28;20036;-58
2021/12/17 09:17:38;;;;;;;52.83;27.17;;;;;;;;;;5093941;28;20028;-58
2021/12/17 09:20:05;;;;;;;32.85;16.95;;;;;;;;;;5094782;28;20107;-58
2021/12/17 09:22:31;;;;;;;37.22;21.00;;;;;;;;;;5094893;28;20482;-58
2021/12/17 09:24:56;;;;;;;42.03;20.30;;;;;;;;;;5093777;28;20032;-58
2021/12/17 09:27:21;;;;;;;37.77;19.43;;;;;;;;;;5093555;28;20024;-57
2021/12/17 09:29:46;;;;;;;36.95;18.33;;;;;;;;;;5091689;28;20536;-58
2021/12/17 09:32:12;;;;;;;53.83;29.17;;;;;;;;;;5094679;28;20032;-58
2021/12/17 09:34:37;;;;;;;53.20;29.27;;;;;;;;;;5096071;28;20403;-58
2021/12/17 09:37:02;;;;;;;50.28;30.13;;;;;;;;;;5092855;28;20032;-60
2021/12/17 09:39:28;;;;;;;65.47;34.35;;;;;;;;;;5093993;28;20033;-57
2021/12/17 09:41:53;;;;;;;49.63;27.42;;;;;;;;;;5093300;28;20045;-57
2021/12/17 09:44:19;;;;;;;69.32;36.58;;;;;;;;;;5093527;28;20491;-59
2021/12/17 09:46:45;;;;;;;76.20;40.08;;;;;;;;;;5097447;28;20090;-58
2021/12/17 09:49:11;;;;;;;68.20;36.47;;;;;;;;;;5104830;28;20035;-58
2021/12/17 09:51:36;;;;;;;43.45;24.73;;;;;;;;;;5093746;28;20085;-58
2021/12/17 09:54:02;;;;;;;44.85;23.08;;;;;;;;;;5094210;28;20027;-58
2021/12/17 09:56:27;;;;;;;55.97;22.08;;;;;;;;;;5092858;28;20027;-59
2021/12/17 09:58:53;;;;;;;41.88;24.23;;;;;;;;;;5092946;28;20078;-61
2021/12/17 10:01:18;;;;;;;43.83;23.40;;;;;;;;;;5093653;28;20024;-57
2021/12/17 10:03:43;;;;;;;39.72;23.92;;;;;;;;;;5098628;28;20475;-57
2021/12/17 10:06:22;;;;;;;48.58;26.92;;;;;;;;;;5093578;28;20028;-57
2021/12/17 10:08:48;;;;;;;65.45;36.45;;;;;;;;;;5095328;28;20044;-58
2021/12/17 10:11:14;;;;;;;56.40;31.90;;;;;;;;;;5095019;28;20842;-58
2021/12/17 10:13:40;;;;;;;54.95;34.22;;;;;;;;;;5098506;28;20486;-57
2021/12/17 10:16:06;;;;;;;63.35;35.20;;;;;;;;;;5101784;28;20028;-58
2021/12/17 10:18:42;;;;;;;70.93;41.05;;;;;;;;;;5096405;28;20040;-58
2021/12/17 10:21:21;;;;;;;87.65;43.75;;;;;;;;;;5090519;28;20040;-58
2021/12/17 10:23:46;;;;;;;53.85;31.08;;;;;;;;;;5091583;28;20048;-58
2021/12/17 10:26:15;;;;;;;46.55;26.15;;;;;;;;;;5097333;28;20561;-57
2021/12/17 10:28:53;;;;;;;39.35;26.75;;;;;;;;;;5099748;28;20039;-57
2021/12/17 10:31:19;;;;;;;47.35;27.20;;;;;;;;;;5098855;28;20056;-57
2021/12/17 10:33:48;;;;;;;47.65;29.35;;;;;;;;;;5097041;28;20035;-59
2021/12/17 10:36:13;;;;;;;54.35;30.00;;;;;;;;;;5100520;28;20027;-57
2021/12/17 10:38:42;;;;;;;48.15;30.23;;;;;;;;;;5099885;28;20031;-57
2021/12/17 10:41:13;;;;;;;54.92;33.15;;;;;;;;;;5100635;28;20032;-57
2021/12/17 10:43:42;;;;;;;54.85;34.15;;;;;;;;;;5100511;28;20031;-56
2021/12/17 10:46:23;;;;;;;61.97;36.28;;;;;;;;;;5104332;28;20055;-57
2021/12/17 10:48:53;;;;;;;68.00;39.30;;;;;;;;;;5102001;28;20031;-57
2021/12/17 10:51:30;;;;;;;71.32;41.83;;;;;;;;;;5096835;28;20024;-58
2021/12/17 10:54:03;;;;;;;73.43;40.03;;;;;;;;;;5096427;28;20484;-58
2021/12/17 10:56:46;;;;;;;41.70;28.05;;;;;;;;;;5096984;28;20106;-57
2021/12/17 10:59:16;;;;;;;48.80;30.85;;;;;;;;;;5098928;28;20051;-57
2021/12/17 11:01:45;;;;;;;45.60;30.30;;;;;;;;;;5106380;28;20032;-57
2021/12/17 11:04:18;;;;;;;45.35;29.65;;;;;;;;;;5095945;28;20043;-57
2021/12/17 11:06:48;;;;;;;50.33;31.05;;;;;;;;;;5096503;28;20107;-57
2021/12/17 11:09:32;;;;;;;49.85;32.35;;;;;;;;;;5095198;28;20058;-57
2021/12/17 11:12:01;;;;;;;55.05;35.17;;;;;;;;;;5095976;28;20027;-57
2021/12/17 11:14:27;;;;;;;61.25;36.58;;;;;;;;;;5095450;28;20627;-57
2021/12/17 11:16:52;;;;;;;68.20;41.65;;;;;;;;;;5098282;28;20020;-57
2021/12/17 11:19:17;;;;;;;62.28;39.75;;;;;;;;;;5098804;28;20111;-57
2021/12/17 11:21:42;;;;;;;67.55;42.33;;;;;;;;;;5099183;28;20483;-57
2021/12/17 11:24:08;;;;;;;73.60;45.20;;;;;;;;;;5096606;28;20073;-57
2021/12/17 11:26:33;;;;;;;63.58;40.30;;;;;;;;;;5097480;28;20164;-57
2021/12/17 11:29:03;;;;;;;44.30;30.35;;;;;;;;;;5095947;28;20030;-57
2021/12/17 11:31:29;;;;;;;46.22;30.35;;;;;;;;;;5099189;28;20490;-57
2021/12/17 11:33:54;;;;;;;48.67;32.33;;;;;;;;;;5102343;28;20032;-57
2021/12/17 11:36:20;;;;;;;47.65;32.67;;;;;;;;;;5099203;28;20528;-57
2021/12/17 11:38:47;;;;;;;48.15;32.88;;;;;;;;;;5100058;28;20028;-57
2021/12/17 11:41:14;;;;;;;52.40;34.92;;;;;;;;;;5093111;28;20042;-57
2021/12/17 11:43:52;;;;;;;59.72;36.97;;;;;;;;;;5102755;28;20039;-57
2021/12/17 11:46:21;;;;;;;60.03;39.20;;;;;;;;;;5094575;28;20164;-57
2021/12/17 11:48:54;;;;;;;58.58;36.78;;;;;;;;;;5091266;28;20097;-58
2021/12/17 11:51:23;;;;;;;73.70;44.40;;;;;;;;;;5091089;28;20044;-57
2021/12/17 11:53:52;;;;;;;75.13;45.57;;;;;;;;;;5097067;28;20031;-57
2021/12/17 11:56:30;;;;;;;82.45;50.38;;;;;;;;;;5099843;28;20057;-57
2021/12/17 11:58:55;;;;;;;61.85;38.78;;;;;;;;;;5087062;28;20032;-58
2021/12/17 12:01:39;;;;;;;46.60;31.95;;;;;;;;;;5091675;28;20021;-58
2021/12/17 12:04:40;;;;;;;44.85;31.92;;;;;;;;;;5089951;28;20128;-58
2021/12/17 12:07:05;;;;;;;45.13;30.60;;;;;;;;;;5046329;28;20037;-58
2021/12/17 12:09:55;;;;;;;50.23;33.67;;;;;;;;;;5052160;28;20155;-58
2021/12/17 12:12:20;;;;;;;53.70;36.55;;;;;;;;;;5057118;28;20856;-58
2021/12/17 12:14:45;;;;;;;53.35;35.08;;;;;;;;;;5056415;28;20029;-58
2021/12/17 12:17:11;;;;;;;73.85;45.38;;;;;;;;;;5034227;28;20527;-59
2021/12/17 12:19:49;;;;;;;110.70;49.25;;;;;;;;;;5052373;28;20040;-58
2021/12/17 12:22:28;;;;;;;67.25;42.08;;;;;;;;;;5048343;28;20037;-58
2021/12/17 12:25:12;;;;;;;73.18;47.15;;;;;;;;;;5065277;28;20044;-59
2021/12/17 12:27:44;;;;;;;70.07;44.55;;;;;;;;;;5055141;28;20041;-58
2021/12/17 12:30:09;;;;;;;66.15;42.17;;;;;;;;;;5047455;28;20033;-59
2021/12/17 12:32:35;;;;;;;43.38;32.08;;;;;;;;;;5056265;28;20550;-58
2021/12/17 12:35:09;;;;;;;49.20;32.72;;;;;;;;;;5053163;28;20061;-59
2021/12/17 12:37:34;;;;;;;53.83;33.70;;;;;;;;;;5052321;28;20040;-58
2021/12/17 12:40:00;;;;;;;51.58;32.40;;;;;;;;;;5053964;28;20032;-56
2021/12/17 12:42:28;;;;;;;54.70;34.13;;;;;;;;;;5092062;28;20127;-60
2021/12/17 12:44:53;;;;;;;49.15;33.50;;;;;;;;;;5091787;28;20081;-60
2021/12/17 12:47:31;;;;;;;56.17;37.20;;;;;;;;;;5093639;28;20027;-57
2021/12/17 12:50:12;;;;;;;60.08;37.47;;;;;;;;;;5092271;28;20024;-58
2021/12/17 12:52:40;;;;;;;58.20;36.83;;;;;;;;;;5093046;28;20045;-58
2021/12/17 12:55:24;;;;;;;66.90;40.88;;;;;;;;;;5090309;28;20040;-58
2021/12/17 12:57:58;;;;;;;72.82;45.10;;;;;;;;;;5089839;28;20634;-57
2021/12/17 13:00:25;;;;;;;78.80;47.22;;;;;;;;;;5089728;28;20504;-56
2021/12/17 13:02:52;;;;;;;63.85;39.42;;;;;;;;;;5085370;28;20032;-59
2021/12/17 13:05:17;;;;;;;40.78;29.67;;;;;;;;;;5088239;28;20056;-57
2021/12/17 13:07:44;;;;;;;44.85;31.70;;;;;;;;;;5094843;28;20036;-57
2021/12/17 13:10:09;;;;;;;44.08;29.73;;;;;;;;;;5092674;28;20063;-58
2021/12/17 13:12:35;;;;;;;43.63;30.48;;;;;;;;;;5088326;28;20086;-58
2021/12/17 13:15:38;;;;;;;45.83;31.42;;;;;;;;;;5088817;28;20039;-59
2021/12/17 13:23:25;;;;;;;61.90;35.85;;;;;;;;;;5086175;28;20036;-58
2021/12/17 13:26:05;;;;;;;58.08;36.38;;;;;;;;;;5085862;28;20028;-57
2021/12/17 13:28:47;;;;;;;74.95;45.60;;;;;;;;;;5089226;28;20107;-57
2021/12/17 13:31:26;;;;;;;65.53;37.95;;;;;;;;;;5100556;28;20120;-57
2021/12/17 13:33:51;;;;;;;69.65;40.83;;;;;;;;;;5099209;28;20037;-59
2021/12/17 13:36:16;;;;;;;72.15;41.13;;;;;;;;;;5089746;28;20407;-57
2021/12/17 13:38:42;;;;;;;78.65;47.03;;;;;;;;;;5095105;28;20691;-57
2021/12/17 13:41:09;;;;;;;75.95;44.53;;;;;;;;;;5092331;28;20104;-57
2021/12/17 13:43:38;;;;;;;67.80;39.53;;;;;;;;;;5088708;28;20028;-57
2021/12/17 13:46:05;;;;;;;77.43;45.97;;;;;;;;;;5087822;28;20044;-58
2021/12/17 13:48:31;;;;;;;57.53;37.22;;;;;;;;;;5088229;28;20115;-57
2021/12/17 13:50:56;;;;;;;46.53;30.58;;;;;;;;;;5088664;28;20477;-57
2021/12/17 13:53:21;;;;;;;43.70;29.63;;;;;;;;;;5100444;28;21003;-57
2021/12/17 13:55:47;;;;;;;47.50;32.17;;;;;;;;;;5100776;28;20023;-57
2021/12/17 13:58:14;;;;;;;41.60;29.30;;;;;;;;;;5095637;28;20051;-55
2021/12/17 14:00:42;;;;;;;47.90;31.83;;;;;;;;;;5096118;28;20070;-58
2021/12/17 14:03:12;;;;;;;53.03;31.60;;;;;;;;;;5097619;28;20380;-57
2021/12/17 14:05:44;;;;;;;57.65;35.42;;;;;;;;;;5095566;28;20063;-57
2021/12/17 14:08:11;;;;;;;63.80;40.10;;;;;;;;;;5102607;28;20036;-59
2021/12/17 14:10:37;;;;;;;64.22;39.33;;;;;;;;;;5106004;28;20034;-58
2021/12/17 14:13:03;;;;;;;71.15;40.05;;;;;;;;;;5097622;28;20028;-58
2021/12/17 14:15:30;;;;;;;75.63;44.58;;;;;;;;;;5101667;28;20430;-58
2021/12/17 14:17:59;;;;;;;73.50;42.63;;;;;;;;;;5103055;28;20032;-59
2021/12/17 14:20:27;;;;;;;74.88;43.63;;;;;;;;;;5101646;28;20492;-59
2021/12/17 14:22:55;;;;;;;78.03;43.22;;;;;;;;;;5101099;28;20538;-60
2021/12/17 14:25:23;;;;;;;72.38;43.35;;;;;;;;;;5097272;28;20027;-60
2021/12/17 14:27:49;;;;;;;67.40;43.08;;;;;;;;;;5091490;28;20020;-58
2021/12/17 14:30:15;;;;;;;60.47;36.95;;;;;;;;;;5102967;28;20028;-58
2021/12/17 14:32:41;;;;;;;48.45;30.80;;;;;;;;;;5096858;28;20107;-58
2021/12/17 14:35:06;;;;;;;40.95;28.00;;;;;;;;;;5101769;28;20044;-58
2021/12/17 14:37:45;;;;;;;39.38;27.52;;;;;;;;;;5101779;28;20169;-58
2021/12/17 14:40:36;;;;;;;37.17;26.42;;;;;;;;;;5081585;28;20063;-59
2021/12/17 14:43:04;;;;;;;43.78;27.38;;;;;;;;;;5101205;28;20564;-59
2021/12/17 14:45:39;;;;;;;36.42;24.77;;;;;;;;;;5098382;28;20111;-58
2021/12/17 14:48:20;;;;;;;44.20;27.48;;;;;;;;;;5085024;28;20507;-58
2021/12/17 15:02:37;;;;;;;42.60;24.90;;;;;;;;;;5090983;28;20035;-57
2021/12/17 15:04:58;;;;;;;37.38;23.55;;;;;;;;;;5090960;28;20024;-58
2021/12/17 15:07:25;;;;;;;34.33;22.13;;;;;;;;;;5091761;28;20560;-59
2021/12/17 15:09:50;;;;;;;36.67;21.98;;;;;;;;;;5091060;28;20569;-58
2021/12/17 15:15:02;;;;;;;31.15;18.88;;;;;;;;;;5104883;28;20464;-58
2021/12/17 15:17:27;;;;;;;29.65;17.98;;;;;;;;;;5090981;28;20426;-58
2021/12/17 15:19:52;;;;;;;30.63;18.98;;;;;;;;;;5090983;28;20032;-59
2021/12/17 15:22:18;;;;;;;27.10;18.80;;;;;;;;;;5091303;28;20028;-57
2021/12/17 15:24:43;;;;;;;28.85;19.25;;;;;;;;;;5091075;28;20025;-57
2021/12/17 15:27:08;;;;;;;21.80;16.70;;;;;;;;;;5097496;28;20028;-58
2021/12/17 15:29:33;;;;;;;23.17;16.88;;;;;;;;;;5088278;28;20040;-60
2021/12/17 15:31:59;;;;;;;27.63;16.40;;;;;;;;;;5088137;28;20020;-59
2021/12/17 15:34:25;;;;;;;28.70;17.63;;;;;;;;;;5090488;28;20028;-57
2021/12/17 15:36:50;;;;;;;28.55;17.05;;;;;;;;;;5087941;28;20032;-57
2021/12/17 15:39:16;;;;;;;26.60;15.32;;;;;;;;;;5096987;28;20832;-58
2021/12/17 15:41:42;;;;;;;26.20;16.00;;;;;;;;;;5089532;28;20040;-57
2021/12/17 15:44:08;;;;;;;24.23;15.52;;;;;;;;;;5096055;28;20032;-58
2021/12/17 15:46:33;;;;;;;23.58;13.73;;;;;;;;;;5093398;28;20026;-57
2021/12/17 15:48:59;;;;;;;23.13;14.27;;;;;;;;;;5087706;28;20032;-57
2021/12/17 15:51:24;;;;;;;22.30;12.85;;;;;;;;;;5087858;28;20032;-57
2021/12/17 15:53:49;;;;;;;21.97;12.67;;;;;;;;;;5087673;28;20028;-58
2021/12/17 15:56:14;;;;;;;19.80;12.43;;;;;;;;;;5087938;28;20425;-58
2021/12/17 15:58:39;;;;;;;20.23;13.00;;;;;;;;;;5087434;28;20028;-58
2021/12/17 16:01:05;;;;;;;23.80;12.50;;;;;;;;;;5087498;28;20470;-59
2021/12/17 16:03:33;;;;;;;20.85;13.13;;;;;;;;;;5094580;28;20042;-57
2021/12/17 16:06:00;;;;;;;22.33;12.52;;;;;;;;;;5097034;28;20093;-57
2021/12/17 16:08:27;;;;;;;17.90;11.50;;;;;;;;;;5107462;28;20039;-60
2021/12/17 16:21:49;;;;;;;18.30;10.52;;;;;;;;;;5043916;28;20044;-58
2021/12/17 16:24:14;;;;;;;14.00;10.40;;;;;;;;;;5044882;28;20111;-57
2021/12/17 16:26:40;;;;;;;16.98;9.98;;;;;;;;;;5044215;28;20041;-57
2021/12/17 16:29:08;;;;;;;15.63;9.65;;;;;;;;;;5044167;28;20025;-57
2021/12/17 16:31:33;;;;;;;17.00;10.15;;;;;;;;;;5035420;28;20036;-57
2021/12/17 16:34:01;;;;;;;10.63;8.13;;;;;;;;;;5039358;28;20029;-57
2021/12/17 16:36:26;;;;;;;15.15;8.85;;;;;;;;;;5044792;28;20041;-58
2021/12/17 16:38:51;;;;;;;12.55;8.35;;;;;;;;;;5044227;28;20037;-57
2021/12/17 16:41:17;;;;;;;11.32;6.78;;;;;;;;;;5023944;28;20038;-57
2021/12/17 16:43:44;;;;;;;10.57;7.63;;;;;;;;;;5025197;28;20692;-57
2021/12/17 16:48:40;;;;;;;11.25;6.72;;;;;;;;;;5023827;28;20137;-57
2021/12/17 16:51:05;;;;;;;12.15;7.53;;;;;;;;;;5024916;28;20040;-56
2021/12/17 16:53:31;;;;;;;9.05;6.38;;;;;;;;;;5026286;28;20021;-57
2021/12/17 16:55:56;;;;;;;10.43;7.43;;;;;;;;;;5043518;28;20090;-57
2021/12/17 16:58:21;;;;;;;12.00;6.80;;;;;;;;;;5054315;28;20066;-58
2021/12/17 17:00:47;;;;;;;10.25;6.10;;;;;;;;;;5068428;28;20189;-57
2021/12/17 17:03:14;;;;;;;9.23;6.90;;;;;;;;;;5092592;28;20075;-57
2021/12/17 17:05:39;;;;;;;13.27;6.55;;;;;;;;;;5089689;28;20388;-57
2021/12/17 17:08:05;;;;;;;9.10;5.68;;;;;;;;;;5089322;28;20048;-57
2021/12/17 17:10:33;;;;;;;8.68;5.95;;;;;;;;;;5089662;28;20099;-57
2021/12/17 17:13:02;;;;;;;11.73;6.68;;;;;;;;;;5089837;28;20384;-57
2021/12/17 17:15:27;;;;;;;9.55;6.70;;;;;;;;;;5089117;28;20087;-57
2021/12/17 17:17:53;;;;;;;14.38;7.07;;;;;;;;;;5089107;28;20063;-56
2021/12/17 17:20:18;;;;;;;10.07;6.63;;;;;;;;;;5089186;28;20040;-57
2021/12/17 17:22:44;;;;;;;10.35;6.50;;;;;;;;;;5088761;28;20047;-57
2021/12/17 17:25:09;;;;;;;9.07;6.95;;;;;;;;;;5089734;28;20055;-57
2021/12/17 17:27:34;;;;;;;11.57;6.40;;;;;;;;;;5089507;28;20123;-57
2021/12/17 17:29:59;;;;;;;9.13;6.03;;;;;;;;;;5088727;28;20036;-56
2021/12/17 17:32:25;;;;;;;11.38;5.97;;;;;;;;;;5092547;28;20028;-56
2021/12/17 17:34:51;;;;;;;9.38;5.72;;;;;;;;;;5093342;28;20036;-57
2021/12/17 17:37:16;;;;;;;8.98;5.57;;;;;;;;;;5100535;28;20024;-57
2021/12/17 17:39:42;;;;;;;7.45;5.18;;;;;;;;;;5105082;28;20032;-57
2021/12/17 17:42:07;;;;;;;9.13;5.35;;;;;;;;;;5113470;28;20054;-58
2021/12/17 17:44:32;;;;;;;8.48;4.82;;;;;;;;;;5113448;28;20027;-57
2021/12/17 17:46:58;;;;;;;6.97;5.00;;;;;;;;;;5113680;28;20004;-58
2021/12/17 17:49:23;;;;;;;9.88;4.65;;;;;;;;;;5106446;28;20031;-58